createdAt,value
2018-10-01T00:02:11.215Z,7.02
2018-10-01T00:04:40.987Z,6.97
2018-10-01T00:07:10.895Z,6.94
2018-10-01T00:09:40.718Z,6.89
2018-10-01T00:12:10.546Z,6.83
2018-10-01T00:14:40.422Z,6.80
2018-10-01T00:17:10.244Z,6.78
2018-10-01T00:19:45.270Z,6.72
2018-10-01T00:22:20.271Z,6.70
2018-10-01T00:24:50.322Z,6.64
2018-10-01T00:27:20.211Z,6.58
2018-10-01T00:29:50.090Z,6.57
2018-10-01T00:32:20.083Z,6.56
2018-10-01T00:34:49.937Z,6.56
2018-10-01T00:37:19.796Z,6.56
2018-10-01T00:39:49.722Z,6.55
2018-10-01T00:42:19.497Z,6.56
2018-10-01T00:44:49.310Z,6.54
2018-10-01T00:47:19.159Z,6.53
2018-10-01T00:49:49.079Z,6.52
2018-10-01T00:52:18.921Z,6.53
2018-10-01T00:54:48.907Z,6.53
2018-10-01T00:57:18.823Z,6.52
2018-10-01T00:59:48.583Z,6.53
2018-10-01T01:02:18.543Z,6.52
2018-10-01T01:04:48.472Z,6.47
2018-10-01T01:07:18.466Z,6.46
2018-10-01T01:09:48.270Z,6.45
2018-10-01T01:12:18.151Z,6.37
2018-10-01T01:14:47.994Z,6.33
2018-10-01T01:17:17.747Z,6.33
2018-10-01T01:19:47.567Z,6.32
2018-10-01T01:22:17.315Z,6.30
2018-10-01T01:24:47.173Z,6.31
2018-10-01T01:27:17.053Z,6.31
2018-10-01T01:29:46.879Z,6.31
2018-10-01T01:32:16.843Z,6.31
2018-10-01T01:34:46.689Z,6.30
2018-10-01T01:37:16.475Z,6.22
2018-10-01T01:39:46.359Z,6.19
2018-10-01T01:42:16.355Z,6.18
2018-10-01T01:44:46.228Z,6.14
2018-10-01T01:47:16.170Z,6.16
2018-10-01T01:49:46.045Z,6.13
2018-10-01T01:52:15.804Z,6.13
2018-10-01T01:54:45.687Z,6.14
2018-10-01T01:57:15.569Z,6.16
2018-10-01T01:59:45.346Z,6.20
2018-10-01T02:02:15.181Z,6.19
2018-10-01T02:04:45.018Z,6.18
2018-10-01T02:07:14.875Z,6.16
2018-10-01T02:09:44.731Z,6.14
2018-10-01T02:12:14.497Z,6.13
2018-10-01T02:14:44.412Z,6.11
2018-10-01T02:17:14.281Z,6.05
2018-10-01T02:19:44.138Z,6.01
2018-10-01T02:22:14.045Z,5.99
2018-10-01T02:24:43.859Z,5.94
2018-10-01T02:27:13.833Z,4.96
2018-10-01T02:29:43.701Z,5.88
2018-10-01T02:32:13.508Z,5.89
2018-10-01T02:34:43.405Z,5.89
2018-10-01T02:37:13.402Z,5.87
2018-10-01T02:39:43.295Z,5.85
2018-10-01T02:42:13.180Z,5.83
2018-10-01T02:44:43.226Z,5.79
2018-10-01T02:47:13.181Z,5.75
2018-10-01T02:49:42.950Z,5.73
2018-10-01T02:52:17.898Z,5.76
2018-10-01T02:54:47.734Z,5.77
2018-10-01T02:57:17.586Z,5.78
2018-10-01T02:59:47.409Z,5.80
2018-10-01T03:02:17.731Z,5.80
2018-10-01T03:04:47.497Z,5.82
2018-10-01T03:07:18.363Z,5.81
2018-10-01T03:09:49.238Z,5.82
2018-10-01T03:12:20.179Z,5.28
2018-10-01T03:14:50.578Z,5.80
2018-10-01T03:17:21.116Z,5.83
2018-10-01T03:19:51.784Z,5.84
2018-10-01T03:22:23.162Z,5.85
2018-10-01T03:24:54.312Z,5.86
2018-10-01T03:27:24.133Z,5.85
2018-10-01T03:29:54.527Z,5.82
2018-10-01T03:32:24.587Z,5.83
2018-10-01T03:34:55.532Z,5.84
2018-10-01T03:37:25.318Z,5.78
2018-10-01T03:39:55.041Z,5.73
2018-10-01T03:42:24.753Z,5.67
2018-10-01T03:44:55.321Z,5.64
2018-10-01T03:47:25.877Z,5.63
2018-10-01T03:49:56.142Z,5.60
2018-10-01T03:52:26.938Z,5.56
2018-10-01T03:54:56.968Z,5.55
2018-10-01T03:57:27.837Z,5.55
2018-10-01T03:59:58.623Z,5.57
2018-10-01T04:02:29.225Z,5.56
2018-10-01T04:04:59.560Z,5.55
2018-10-01T04:07:29.884Z,5.51
2018-10-01T04:10:00.940Z,5.50
2018-10-01T04:12:30.870Z,5.51
2018-10-01T04:15:01.237Z,5.53
2018-10-01T04:17:31.329Z,5.55
2018-10-01T04:20:02.053Z,5.57
2018-10-01T04:22:39.021Z,5.58
2018-10-01T04:25:10.349Z,5.57
2018-10-01T04:27:40.988Z,5.56
2018-10-01T04:30:13.013Z,5.56
2018-10-01T04:32:43.561Z,5.59
2018-10-01T04:35:13.854Z,5.60
2018-10-01T04:37:44.323Z,5.59
2018-10-01T04:40:13.976Z,5.59
2018-10-01T04:42:44.328Z,5.60
2018-10-01T04:45:14.232Z,5.61
2018-10-01T04:47:45.781Z,5.62
2018-10-01T04:50:16.513Z,5.63
2018-10-01T04:52:47.381Z,5.64
2018-10-01T04:55:17.138Z,5.61
2018-10-01T04:57:47.493Z,5.61
2018-10-01T05:00:17.351Z,5.60
2018-10-01T05:02:47.882Z,5.59
2018-10-01T05:05:18.762Z,5.60
2018-10-01T05:07:48.684Z,5.61
2018-10-01T05:10:18.333Z,5.64
2018-10-01T05:12:48.082Z,5.76
2018-10-01T05:15:18.079Z,6.00
2018-10-01T05:17:47.753Z,6.18
2018-10-01T05:20:17.919Z,6.21
2018-10-01T05:22:48.009Z,6.23
2018-10-01T05:25:19.480Z,6.49
2018-10-01T05:27:49.261Z,6.80
2018-10-01T05:30:19.654Z,7.15
2018-10-01T05:32:50.903Z,7.38
2018-10-01T05:35:21.047Z,7.54
2018-10-01T05:37:51.392Z,7.57
2018-10-01T05:40:21.552Z,7.48
2018-10-01T05:42:51.333Z,7.52
2018-10-01T05:45:21.638Z,7.77
2018-10-01T05:47:51.818Z,7.70
2018-10-01T05:50:21.889Z,7.66
2018-10-01T05:52:52.069Z,7.55
2018-10-01T05:55:21.966Z,7.52
2018-10-01T05:57:51.969Z,7.51
2018-10-01T06:00:21.802Z,7.48
2018-10-01T06:02:51.686Z,7.49
2018-10-01T06:05:21.621Z,7.53
2018-10-01T06:07:51.593Z,7.63
2018-10-01T06:10:21.417Z,7.75
2018-10-01T06:12:51.301Z,7.85
2018-10-01T06:15:21.142Z,7.97
2018-10-01T06:17:50.981Z,8.07
2018-10-01T06:20:20.998Z,8.09
2018-10-01T06:22:51.143Z,8.15
2018-10-01T06:25:21.092Z,8.23
2018-10-01T06:27:50.804Z,8.34
2018-10-01T06:30:20.827Z,8.43
2018-10-01T06:32:50.745Z,8.53
2018-10-01T06:35:20.657Z,8.60
2018-10-01T06:37:50.645Z,8.73
2018-10-01T06:40:20.629Z,8.80
2018-10-01T06:42:50.558Z,8.84
2018-10-01T06:45:20.492Z,8.91
2018-10-01T06:47:50.438Z,9.01
2018-10-01T06:50:20.478Z,9.06
2018-10-01T06:52:50.429Z,9.09
2018-10-01T06:55:20.524Z,9.18
2018-10-01T06:57:50.436Z,9.29
2018-10-01T07:00:20.426Z,9.37
2018-10-01T07:02:50.413Z,9.38
2018-10-01T07:05:20.395Z,9.44
2018-10-01T07:07:50.262Z,9.40
2018-10-01T07:10:20.232Z,9.50
2018-10-01T07:12:50.262Z,9.61
2018-10-01T07:15:20.291Z,9.72
2018-10-01T07:17:50.572Z,9.85
2018-10-01T07:20:20.381Z,9.93
2018-10-01T07:22:50.243Z,10.01
2018-10-01T07:25:20.205Z,10.12
2018-10-01T07:27:50.091Z,10.17
2018-10-01T07:30:19.978Z,10.30
2018-10-01T07:32:49.959Z,10.45
2018-10-01T07:35:20.003Z,10.58
2018-10-01T07:37:49.852Z,10.69
2018-10-01T07:40:19.647Z,10.80
2018-10-01T07:42:49.618Z,10.84
2018-10-01T07:45:19.773Z,10.90
2018-10-01T07:47:49.493Z,11.01
2018-10-01T07:50:19.366Z,11.07
2018-10-01T07:52:49.351Z,11.20
2018-10-01T07:55:19.209Z,11.30
2018-10-01T07:57:49.177Z,11.35
2018-10-01T08:00:19.115Z,11.40
2018-10-01T08:02:49.060Z,11.49
2018-10-01T08:05:18.927Z,11.58
2018-10-01T08:07:48.859Z,11.70
2018-10-01T08:10:19.706Z,11.93
2018-10-01T08:12:56.056Z,12.15
2018-10-01T08:15:25.943Z,12.35
2018-10-01T08:17:55.802Z,12.50
2018-10-01T08:20:25.884Z,12.75
2018-10-01T08:22:55.665Z,13.04
2018-10-01T08:25:25.619Z,13.27
2018-10-01T08:27:55.506Z,13.47
2018-10-01T08:30:25.393Z,13.65
2018-10-01T08:32:55.208Z,13.92
2018-10-01T08:35:25.524Z,14.21
2018-10-01T08:37:55.434Z,14.48
2018-10-01T08:40:25.753Z,14.68
2018-10-01T08:42:55.994Z,14.78
2018-10-01T08:45:25.861Z,14.95
2018-10-01T08:47:57.013Z,15.09
2018-10-01T08:50:37.069Z,15.09
2018-10-01T08:53:13.161Z,15.20
2018-10-01T08:55:43.093Z,15.32
2018-10-01T08:58:13.612Z,15.56
2018-10-01T09:00:43.588Z,15.89
2018-10-01T09:03:13.658Z,16.20
2018-10-01T09:05:43.521Z,16.30
2018-10-01T09:08:13.384Z,16.25
2018-10-01T09:10:43.250Z,16.02
2018-10-01T09:13:13.770Z,16.06
2018-10-01T09:15:43.704Z,16.35
2018-10-01T09:18:13.622Z,16.42
2018-10-01T09:20:43.569Z,16.45
2018-10-01T09:23:13.473Z,16.24
2018-10-01T09:25:43.355Z,16.30
2018-10-01T09:28:13.242Z,16.34
2018-10-01T09:30:43.148Z,16.31
2018-10-01T09:33:13.004Z,16.35
2018-10-01T09:35:42.859Z,16.37
2018-10-01T09:38:13.328Z,16.32
2018-10-01T09:40:43.196Z,16.25
2018-10-01T09:43:13.217Z,15.99
2018-10-01T09:45:43.132Z,15.85
2018-10-01T09:48:12.909Z,15.77
2018-10-01T09:50:42.871Z,15.51
2018-10-01T09:53:12.786Z,15.34
2018-10-01T09:55:42.693Z,15.35
2018-10-01T09:58:12.593Z,15.43
2018-10-01T10:00:44.497Z,15.41
2018-10-01T10:03:14.393Z,15.49
2018-10-01T10:05:44.346Z,15.65
2018-10-01T10:08:14.310Z,15.89
2018-10-01T10:10:44.533Z,16.02
2018-10-01T10:13:14.382Z,16.09
2018-10-01T10:15:44.290Z,16.02
2018-10-01T10:18:14.274Z,16.24
2018-10-01T10:20:44.201Z,16.43
2018-10-01T10:23:14.555Z,16.56
2018-10-01T10:25:44.404Z,16.62
2018-10-01T10:28:14.570Z,16.62
2018-10-01T10:30:44.419Z,16.68
2018-10-01T10:33:14.318Z,16.66
2018-10-01T10:35:44.237Z,16.65
2018-10-01T10:38:14.120Z,16.69
2018-10-01T10:40:44.091Z,16.85
2018-10-01T10:43:13.978Z,16.68
2018-10-01T10:45:43.819Z,16.52
2018-10-01T10:48:13.827Z,16.32
2018-10-01T10:50:43.728Z,16.10
2018-10-01T10:53:13.651Z,16.09
2018-10-01T10:55:43.490Z,16.21
2018-10-01T10:58:13.377Z,16.23
2018-10-01T11:00:43.249Z,16.30
2018-10-01T11:03:13.260Z,16.23
2018-10-01T11:05:43.182Z,16.23
2018-10-01T11:08:13.134Z,16.27
2018-10-01T11:10:43.003Z,16.26
2018-10-01T11:13:12.889Z,16.24
2018-10-01T11:15:42.748Z,16.30
2018-10-01T11:18:13.202Z,16.25
2018-10-01T11:20:43.215Z,16.32
2018-10-01T11:23:12.979Z,16.32
2018-10-01T11:25:42.927Z,16.43
2018-10-01T11:28:13.564Z,16.57
2018-10-01T11:30:43.428Z,16.67
2018-10-01T11:33:13.500Z,16.71
2018-10-01T11:35:43.391Z,16.63
2018-10-01T11:38:13.323Z,16.56
2018-10-01T11:40:43.182Z,16.60
2018-10-01T11:43:13.091Z,16.55
2018-10-01T11:45:43.066Z,16.48
2018-10-01T11:48:12.922Z,16.46
2018-10-01T11:50:42.834Z,16.43
2018-10-01T11:53:12.682Z,16.43
2018-10-01T11:55:42.675Z,16.51
2018-10-01T11:58:12.531Z,16.45
2018-10-01T12:00:43.322Z,16.40
2018-10-01T12:03:13.315Z,16.12
2018-10-01T12:05:43.226Z,16.06
2018-10-01T12:08:13.183Z,16.10
2018-10-01T12:10:43.218Z,16.11
2018-10-01T12:13:13.449Z,16.09
2018-10-01T12:15:43.446Z,16.01
2018-10-01T12:18:13.753Z,16.01
2018-10-01T12:20:43.667Z,16.07
2018-10-01T12:23:13.669Z,16.15
2018-10-01T12:25:43.607Z,16.21
2018-10-01T12:28:13.604Z,16.16
2018-10-01T12:30:43.668Z,16.09
2018-10-01T12:33:13.762Z,16.05
2018-10-01T12:35:43.685Z,16.03
2018-10-01T12:38:13.626Z,16.00
2018-10-01T12:40:43.713Z,15.93
2018-10-01T12:43:13.828Z,15.91
2018-10-01T12:45:43.844Z,15.91
2018-10-01T12:48:13.960Z,15.93
2018-10-01T12:50:43.910Z,15.94
2018-10-01T12:53:14.099Z,15.91
2018-10-01T12:55:44.004Z,15.90
2018-10-01T12:58:13.979Z,15.91
2018-10-01T13:00:44.000Z,15.83
2018-10-01T13:03:13.862Z,15.75
2018-10-01T13:05:43.907Z,15.63
2018-10-01T13:08:13.769Z,15.57
2018-10-01T13:10:43.734Z,15.44
2018-10-01T13:13:13.696Z,15.34
2018-10-01T13:15:43.678Z,15.32
2018-10-01T13:18:13.633Z,15.24
2018-10-01T13:20:43.745Z,15.11
2018-10-01T13:23:13.781Z,15.15
2018-10-01T13:25:43.750Z,15.07
2018-10-01T13:28:13.669Z,14.91
2018-10-01T13:30:43.797Z,14.84
2018-10-01T13:33:13.598Z,14.80
2018-10-01T13:35:43.582Z,14.67
2018-10-01T13:38:13.500Z,14.67
2018-10-01T13:40:43.504Z,14.63
2018-10-01T13:43:13.435Z,14.66
2018-10-01T13:45:43.553Z,14.67
2018-10-01T13:48:13.545Z,14.70
2018-10-01T13:50:43.632Z,14.74
2018-10-01T13:53:13.617Z,14.81
2018-10-01T13:55:43.608Z,14.84
2018-10-01T13:58:13.543Z,14.91
2018-10-01T14:00:43.558Z,14.98
2018-10-01T14:03:13.515Z,14.92
2018-10-01T14:05:43.421Z,14.76
2018-10-01T14:08:13.383Z,14.57
2018-10-01T14:10:43.287Z,14.44
2018-10-01T14:13:13.262Z,14.34
2018-10-01T14:15:43.130Z,14.23
2018-10-01T14:18:13.065Z,14.18
2018-10-01T14:20:43.181Z,14.12
2018-10-01T14:23:13.039Z,14.04
2018-10-01T14:25:43.094Z,13.96
2018-10-01T14:28:13.091Z,13.85
2018-10-01T14:30:43.005Z,13.79
2018-10-01T14:33:12.921Z,13.74
2018-10-01T14:35:42.810Z,13.66
2018-10-01T14:38:13.429Z,13.58
2018-10-01T14:40:43.453Z,13.54
2018-10-01T14:43:13.369Z,13.46
2018-10-01T14:45:43.345Z,13.41
2018-10-01T14:48:13.397Z,13.37
2018-10-01T14:50:43.523Z,13.35
2018-10-01T14:53:13.469Z,13.33
2018-10-01T14:55:43.425Z,13.30
2018-10-01T14:58:13.435Z,13.27
2018-10-01T15:00:43.447Z,13.27
2018-10-01T15:03:13.459Z,13.26
2018-10-01T15:05:43.354Z,13.21
2018-10-01T15:08:13.369Z,13.21
2018-10-01T15:10:43.288Z,13.20
2018-10-01T15:13:13.443Z,13.14
2018-10-01T15:15:43.732Z,13.15
2018-10-01T15:18:13.883Z,13.09
2018-10-01T15:20:43.741Z,13.06
2018-10-01T15:23:13.714Z,13.02
2018-10-01T15:25:43.615Z,12.99
2018-10-01T15:28:13.523Z,13.04
2018-10-01T15:30:43.393Z,13.02
2018-10-01T15:33:13.465Z,12.97
2018-10-01T15:35:43.481Z,12.94
2018-10-01T15:38:13.516Z,12.93
2018-10-01T15:40:43.408Z,12.93
2018-10-01T15:43:13.361Z,12.96
2018-10-01T15:45:44.663Z,12.83
2018-10-01T15:48:14.540Z,12.72
2018-10-01T15:50:44.610Z,12.67
2018-10-01T15:53:14.710Z,12.64
2018-10-01T15:55:44.754Z,12.57
2018-10-01T15:58:14.775Z,12.56
2018-10-01T16:00:44.652Z,12.46
2018-10-01T16:03:14.600Z,12.42
2018-10-01T16:05:44.451Z,12.35
2018-10-01T16:08:14.675Z,12.33
2018-10-01T16:10:44.658Z,12.29
2018-10-01T16:13:14.654Z,12.24
2018-10-01T16:15:44.572Z,12.22
2018-10-01T16:18:14.579Z,12.19
2018-10-01T16:20:44.409Z,12.15
2018-10-01T16:25:49.836Z,12.14
2018-10-01T16:28:19.741Z,12.13
2018-10-01T16:30:49.644Z,12.11
2018-10-01T16:33:19.614Z,12.08
2018-10-01T16:35:49.544Z,12.04
2018-10-01T16:38:19.529Z,11.98
2018-10-01T16:40:49.317Z,11.96
2018-10-01T16:43:19.322Z,11.96
2018-10-01T16:45:49.209Z,11.96
2018-10-01T16:48:19.155Z,11.96
2018-10-01T16:50:49.073Z,11.44
2018-10-01T16:53:19.235Z,11.93
2018-10-01T16:55:49.205Z,11.90
2018-10-01T16:58:19.171Z,11.88
2018-10-01T17:00:49.042Z,11.87
2018-10-01T17:03:19.042Z,11.88
2018-10-01T17:05:48.960Z,11.86
2018-10-01T17:08:20.333Z,11.86
2018-10-01T17:10:50.334Z,11.84
2018-10-01T17:13:20.677Z,11.83
2018-10-01T17:15:50.630Z,11.81
2018-10-01T17:18:20.937Z,11.85
2018-10-01T17:20:50.892Z,11.80
2018-10-01T17:23:21.087Z,11.78
2018-10-01T17:25:51.197Z,11.76
2018-10-01T17:28:21.126Z,11.74
2018-10-01T17:30:51.362Z,11.75
2018-10-01T17:33:21.357Z,11.74
2018-10-01T17:35:51.473Z,11.78
2018-10-01T17:38:21.568Z,11.87
2018-10-01T17:40:51.542Z,11.99
2018-10-01T17:43:21.397Z,12.07
2018-10-01T17:45:51.404Z,12.12
2018-10-01T17:48:21.406Z,12.13
2018-10-01T17:50:51.541Z,12.10
2018-10-01T17:53:21.772Z,12.01
2018-10-01T17:55:51.969Z,11.97
2018-10-01T17:58:22.428Z,11.94
2018-10-01T18:00:52.714Z,11.98
2018-10-01T18:03:23.206Z,11.89
2018-10-01T18:05:54.389Z,11.83
2018-10-01T18:08:25.457Z,11.81
2018-10-01T18:10:55.993Z,11.79
2018-10-01T18:13:27.480Z,11.78
2018-10-01T18:15:57.909Z,11.77
2018-10-01T18:18:28.216Z,11.76
2018-10-01T18:20:58.873Z,11.73
2018-10-01T18:23:29.258Z,11.70
2018-10-01T18:25:59.785Z,11.70
2018-10-01T18:28:30.582Z,11.68
2018-10-01T18:31:01.060Z,11.66
2018-10-01T18:33:31.760Z,11.62
2018-10-01T18:36:02.312Z,11.57
2018-10-01T18:38:33.425Z,11.51
2018-10-01T18:41:04.118Z,11.51
2018-10-01T18:43:34.758Z,11.45
2018-10-01T18:46:05.449Z,11.44
2018-10-01T18:48:35.673Z,11.44
2018-10-01T18:51:06.104Z,11.45
2018-10-01T18:53:36.565Z,11.45
2018-10-01T18:56:07.202Z,11.46
2018-10-01T18:58:38.147Z,11.45
2018-10-01T19:01:08.593Z,11.42
2018-10-01T19:03:40.111Z,11.41
2018-10-01T19:06:10.794Z,11.40
2018-10-01T19:08:41.499Z,11.37
2018-10-01T19:11:12.712Z,11.35
2018-10-01T19:13:42.988Z,11.35
2018-10-01T19:16:13.359Z,11.34
2018-10-01T19:18:44.183Z,11.33
2018-10-01T19:21:14.522Z,11.31
2018-10-01T19:23:45.059Z,11.31
2018-10-01T19:26:16.688Z,11.29
2018-10-01T19:28:47.049Z,11.28
2018-10-01T19:31:17.358Z,11.31
2018-10-01T19:33:47.744Z,11.31
2018-10-01T19:36:18.429Z,11.33
2018-10-01T19:38:48.843Z,11.32
2018-10-01T19:41:19.956Z,11.31
2018-10-01T19:43:50.468Z,11.29
2018-10-01T19:46:21.191Z,11.27
2018-10-01T19:48:51.562Z,11.25
2018-10-01T19:51:22.001Z,11.22
2018-10-01T19:53:53.391Z,11.22
2018-10-01T19:56:24.325Z,11.22
2018-10-01T19:58:55.553Z,11.25
2018-10-01T20:01:25.788Z,11.24
2018-10-01T20:03:56.174Z,11.22
2018-10-01T20:06:26.529Z,11.20
2018-10-01T20:08:56.772Z,11.16
2018-10-01T20:11:27.050Z,11.17
2018-10-01T20:13:57.289Z,11.16
2018-10-01T20:16:28.244Z,11.13
2018-10-01T20:18:58.629Z,11.10
2018-10-01T20:21:29.141Z,11.11
2018-10-01T20:24:00.356Z,11.11
2018-10-01T20:26:31.173Z,11.14
2018-10-01T20:29:01.944Z,11.15
2018-10-01T20:31:32.122Z,11.17
2018-10-01T20:34:02.375Z,11.17
2018-10-01T20:36:33.359Z,11.15
2018-10-01T20:39:04.119Z,11.14
2018-10-01T20:41:34.326Z,11.16
2018-10-01T20:44:04.849Z,11.16
2018-10-01T20:46:35.230Z,11.12
2018-10-01T20:49:05.609Z,11.11
2018-10-01T20:51:35.791Z,11.04
2018-10-01T20:54:05.831Z,11.02
2018-10-01T20:56:36.835Z,11.05
2018-10-01T20:59:07.900Z,11.05
2018-10-01T21:01:37.824Z,11.09
2018-10-01T21:04:09.482Z,11.04
2018-10-01T21:06:39.799Z,10.97
2018-10-01T21:09:12.080Z,10.93
2018-10-01T21:11:42.033Z,10.95
2018-10-01T21:14:12.165Z,10.94
2018-10-01T21:16:41.951Z,10.94
2018-10-01T21:19:11.719Z,10.93
2018-10-01T21:21:42.079Z,10.93
2018-10-01T21:24:11.818Z,10.94
2018-10-01T21:26:41.925Z,10.97
2018-10-01T21:29:14.048Z,11.01
2018-10-01T21:31:44.388Z,11.01
2018-10-01T21:34:14.531Z,11.00
2018-10-01T21:36:45.547Z,11.00
2018-10-01T21:39:25.528Z,10.96
2018-10-01T21:41:55.564Z,10.94
2018-10-01T21:44:25.468Z,10.85
2018-10-01T21:46:56.102Z,10.85
2018-10-01T21:49:26.786Z,10.84
2018-10-01T21:51:57.549Z,10.81
2018-10-01T21:54:28.540Z,10.79
2018-10-01T21:56:58.628Z,10.77
2018-10-01T21:59:31.595Z,10.74
2018-10-01T22:02:01.639Z,10.72
2018-10-01T22:04:32.074Z,10.72
2018-10-01T22:07:02.931Z,10.72
2018-10-01T22:09:32.717Z,10.70
2018-10-01T22:12:03.180Z,10.71
2018-10-01T22:14:33.052Z,10.69
2018-10-01T22:17:03.844Z,10.66
2018-10-01T22:19:34.288Z,10.70
2018-10-01T22:22:05.254Z,10.68
2018-10-01T22:24:36.096Z,10.68
2018-10-01T22:27:07.000Z,10.70
2018-10-01T22:29:37.816Z,10.69
2018-10-01T22:32:07.519Z,10.67
2018-10-01T22:34:38.434Z,10.71
2018-10-01T22:37:08.062Z,10.68
2018-10-01T22:39:38.452Z,10.69
2018-10-01T22:42:09.261Z,10.66
2018-10-01T22:44:38.993Z,10.67
2018-10-01T22:47:09.086Z,10.63
2018-10-01T22:49:39.852Z,10.65
2018-10-01T22:52:10.972Z,10.65
2018-10-01T22:54:41.288Z,10.65
2018-10-01T22:57:11.885Z,10.65
2018-10-01T22:59:48.149Z,10.66
2018-10-01T23:02:18.942Z,10.65
2018-10-01T23:04:49.481Z,10.64
2018-10-01T23:07:19.908Z,10.62
2018-10-01T23:09:50.654Z,10.63
2018-10-01T23:12:20.538Z,10.62
2018-10-01T23:14:50.423Z,10.61
2018-10-01T23:17:20.290Z,10.59
2018-10-01T23:19:50.068Z,10.58
2018-10-01T23:22:19.899Z,10.56
2018-10-01T23:24:49.772Z,10.52
2018-10-01T23:27:19.778Z,10.51
2018-10-01T23:29:49.678Z,10.54
2018-10-01T23:32:19.601Z,10.51
2018-10-01T23:34:49.366Z,10.48
2018-10-01T23:37:19.181Z,10.46
2018-10-01T23:39:49.074Z,10.46
2018-10-01T23:42:18.900Z,10.48
2018-10-01T23:44:48.732Z,10.46
2018-10-01T23:47:18.514Z,10.41
2018-10-01T23:49:48.285Z,10.40
2018-10-01T23:52:18.117Z,10.38
2018-10-01T23:54:47.974Z,10.36
2018-10-01T23:57:17.772Z,10.35
2018-10-01T23:59:47.638Z,10.31
